MMUN/CUN METAR and TAF weather

Enter ICAO airport designator
Station Type Date Time Source
MMUN METAR 2024/06/14 01:42 UTC NOAA

MMUN 140142Z 15008KT 7SM SCT015 SCT250 30/27 A2984 RMK 8/408


Station Type Date Time Source
MMUN Decoded METAR 2024/06/14 01:42 UTC NOAA

Cancun International Airport, Mexico (MMUN) 21-02N 086-52W
Jun 13, 2024 - 09:42 PM EDT / 2024.06.14 0142 UTC
Wind: from the SSE (150 degrees) at 9 MPH (8 KT):0
Visibility: 7 mile(s):0
Sky conditions: partly cloudy
Temperature: 86 F (30 C)
Heat index: 101.8 F (38.8 C):1
Dew Point: 80 F (27 C)
Relative Humidity: 84%
Pressure (altimeter): 29.84 in. Hg (1010 hPa)
ob: MMUN 140142Z 15008KT 7SM SCT015 SCT250 30/27 A2984 RMK 8/408
cycle: 1

Station Type Date Time Source
MMUN TAF 2024/06/13 18:42 UTC NOAA